Time;durP1;ratioP1;P1;durP2;ratioP2;P2;SDS_P1;SDS_P2;PMS_P1;PMS_P2;Temp;Humidity;BMP_temperature;BMP_pressure;BME280_temperature;BME280_humidity;BME280_pressure;Samples;Min_cycle;Max_cycle;Signal;HPM_P1;HPM_P2
2023/09/08 00:00:40;;;;;;;18.03;13.30;;;;;;;20.58;86.12;95698.06;5068032;28;20216;-81
2023/09/08 00:03:06;;;;;;;16.97;12.30;;;;;;;20.55;86.21;95701.22;5049249;28;20239;-81
2023/09/08 00:05:31;;;;;;;20.53;12.80;;;;;;;20.56;86.29;95698.28;5051475;28;20224;-80
2023/09/08 00:07:57;;;;;;;21.13;12.67;;;;;;;20.56;86.63;95695.63;5062393;28;20267;-79
2023/09/08 00:10:22;;;;;;;15.80;11.93;;;;;;;20.48;86.50;95700.56;5036584;28;20221;-80
2023/09/08 00:12:48;;;;;;;16.53;12.10;;;;;;;20.41;86.73;95700.72;5054372;28;20236;-82
2023/09/08 00:15:13;;;;;;;17.25;11.48;;;;;;;20.44;86.62;95700.25;5070024;28;20779;-79
2023/09/08 00:17:39;;;;;;;19.43;11.33;;;;;;;20.51;85.71;95694.78;5065409;28;20228;-81
2023/09/08 00:20:09;;;;;;;16.37;11.00;;;;;;;20.49;85.03;95712.84;5056341;28;20311;-80
2023/09/08 00:22:34;;;;;;;19.30;11.40;;;;;;;20.47;84.90;95696.28;5053552;28;20237;-81
2023/09/08 00:25:00;;;;;;;15.65;10.63;;;;;;;20.49;84.58;95699.53;5052482;28;20780;-81
2023/09/08 00:27:25;;;;;;;15.10;10.30;;;;;;;20.42;84.59;95698.88;5052176;28;20229;-82
2023/09/08 00:29:51;;;;;;;15.87;10.23;;;;;;;20.45;84.97;95703.69;5071737;28;20290;-81
2023/09/08 00:32:16;;;;;;;18.67;10.13;;;;;;;20.47;84.73;95705.06;5038722;28;20257;-80
2023/09/08 00:34:42;;;;;;;12.97;9.57;;;;;;;20.43;84.25;95700.47;5052478;28;20288;-80
2023/09/08 00:37:09;;;;;;;16.07;9.70;;;;;;;20.43;83.52;95697.81;5064757;28;20225;-81
2023/09/08 00:39:38;;;;;;;16.17;9.60;;;;;;;20.40;83.22;95698.28;5070461;28;20235;-81
2023/09/08 00:42:03;;;;;;;13.37;9.47;;;;;;;20.39;83.20;95705.50;5053890;28;20257;-80
2023/09/08 00:44:29;;;;;;;16.63;9.30;;;;;;;20.30;83.24;95698.16;5047560;28;20224;-80
2023/09/08 00:46:54;;;;;;;16.07;8.70;;;;;;;20.22;82.65;95695.84;5047467;28;20233;-81
2023/09/08 00:49:20;;;;;;;13.73;8.60;;;;;;;20.28;82.73;95701.03;5072536;28;20224;-81
2023/09/08 00:51:46;;;;;;;17.13;8.90;;;;;;;20.38;82.55;95685.25;5065813;28;20240;-81
2023/09/08 00:54:11;;;;;;;15.33;8.93;;;;;;;20.25;82.35;95687.44;5076358;28;20212;-82
2023/09/08 00:56:37;;;;;;;11.57;7.27;;;;;;;20.31;79.89;95689.91;5065964;28;20721;-82
2023/09/08 00:59:02;;;;;;;12.03;7.13;;;;;;;20.28;79.70;95686.94;5042914;28;20233;-81
2023/09/08 01:01:29;;;;;;;11.20;7.10;;;;;;;20.37;79.61;95688.94;5038367;28;20259;-80
2023/09/08 01:03:54;;;;;;;11.30;7.10;;;;;;;20.25;78.93;95690.91;5055872;28;20238;-81
2023/09/08 01:06:19;;;;;;;11.03;7.47;;;;;;;20.35;79.18;95690.25;5070310;28;20594;-80
2023/09/08 01:08:45;;;;;;;11.03;7.83;;;;;;;20.24;81.49;95694.59;5053404;28;20237;-80
2023/09/08 01:11:11;;;;;;;12.67;8.23;;;;;;;20.00;83.57;95693.88;5055676;28;20244;-80
2023/09/08 01:13:36;;;;;;;14.17;8.30;;;;;;;20.01;85.45;95689.38;5042624;28;20248;-80
2023/09/08 01:16:02;;;;;;;15.83;7.87;;;;;;;20.01;85.18;95690.16;5042031;28;20231;-79
2023/09/08 01:18:27;;;;;;;13.97;7.50;;;;;;;20.03;84.47;95685.44;5036167;28;20624;-80
2023/09/08 01:21:25;;;;;;;12.80;7.23;;;;;;;20.05;83.73;95686.00;5054134;28;21200;-81
2023/09/08 01:24:29;;;;;;;12.43;6.90;;;;;;;20.06;83.33;95679.63;5085685;28;20286;-80
2023/09/08 01:26:54;;;;;;;12.97;7.17;;;;;;;20.12;82.94;95683.19;5072202;28;20236;-80
2023/09/08 01:29:20;;;;;;;10.83;7.30;;;;;;;20.03;82.57;95674.81;5051136;28;20239;-81
2023/09/08 01:31:45;;;;;;;9.70;6.50;;;;;;;20.08;82.79;95679.41;5057733;28;20834;-80
2023/09/08 01:34:11;;;;;;;11.70;6.93;;;;;;;19.95;83.85;95677.84;5038846;28;20240;-79
2023/09/08 01:36:37;;;;;;;10.47;6.80;;;;;;;19.92;83.34;95674.84;5057558;28;20290;-80
2023/09/08 01:39:03;;;;;;;11.40;6.67;;;;;;;19.90;82.96;95676.94;5052888;28;20225;-81
2023/09/08 01:41:30;;;;;;;10.50;7.10;;;;;;;19.97;83.05;95677.59;5036741;28;21006;-81
2023/09/08 01:43:55;;;;;;;13.17;6.67;;;;;;;20.01;82.52;95668.91;5067163;28;20258;-80
2023/09/08 01:46:21;;;;;;;9.97;6.80;;;;;;;19.96;83.01;95668.03;5050722;28;21117;-80
2023/09/08 01:48:46;;;;;;;10.53;6.73;;;;;;;19.96;82.99;95670.69;5069483;28;20223;-80
2023/09/08 01:51:11;;;;;;;11.03;6.90;;;;;;;19.96;83.01;95674.16;5070241;28;20290;-80
2023/09/08 01:53:37;;;;;;;11.73;6.93;;;;;;;19.93;83.49;95677.28;5066356;28;20243;-80
2023/09/08 01:56:02;;;;;;;12.83;7.30;;;;;;;19.89;83.33;95670.03;5047362;28;20358;-79
2023/09/08 01:58:30;;;;;;;13.03;6.80;;;;;;;19.89;83.83;95672.69;5066211;28;20308;-79
2023/09/08 02:01:00;;;;;;;11.00;7.00;;;;;;;19.89;84.00;95670.03;5052390;28;20224;-80
2023/09/08 02:03:25;;;;;;;12.63;7.00;;;;;;;19.91;84.04;95675.91;5061892;28;20232;-80
2023/09/08 02:05:50;;;;;;;12.60;6.77;;;;;;;19.77;84.73;95664.78;5043190;28;20240;-79
2023/09/08 02:08:16;;;;;;;11.07;7.07;;;;;;;19.65;84.61;95664.03;5070013;28;20220;-81
2023/09/08 02:10:41;;;;;;;11.77;7.07;;;;;;;19.75;85.05;95658.09;5069558;28;20292;-81
2023/09/08 02:13:07;;;;;;;11.50;6.93;;;;;;;19.63;85.88;95666.06;5067833;28;20343;-80
2023/09/08 02:15:35;;;;;;;12.67;6.83;;;;;;;19.64;85.94;95658.91;5074075;28;20223;-80
2023/09/08 02:18:00;;;;;;;9.07;6.70;;;;;;;19.62;86.56;95661.84;5044407;28;20243;-80
2023/09/08 02:20:26;;;;;;;11.03;6.80;;;;;;;19.65;86.08;95663.22;5074865;28;20313;-80
2023/09/08 02:22:53;;;;;;;10.73;7.20;;;;;;;19.58;86.44;95660.69;5054871;28;20258;-80
2023/09/08 02:25:19;;;;;;;11.03;7.27;;;;;;;19.60;86.61;95655.94;5063239;28;20228;-80
2023/09/08 02:27:44;;;;;;;10.90;7.40;;;;;;;19.52;87.12;95650.19;5065441;28;20289;-80
2023/09/08 02:30:10;;;;;;;14.70;7.63;;;;;;;19.59;86.96;95656.97;5050529;28;20302;-81
2023/09/08 02:32:35;;;;;;;14.43;7.80;;;;;;;19.66;86.47;95652.34;5048514;28;20269;-80
2023/09/08 02:35:01;;;;;;;11.50;7.50;;;;;;;19.68;86.56;95652.13;5067291;28;20216;-81
2023/09/08 02:37:26;;;;;;;13.30;7.67;;;;;;;19.64;86.88;95653.63;5049916;28;20267;-80
2023/09/08 02:39:52;;;;;;;13.00;7.57;;;;;;;19.57;87.30;95652.94;5069626;28;20672;-80
2023/09/08 02:42:17;;;;;;;12.13;7.87;;;;;;;19.52;88.04;95652.84;5051924;28;20338;-80
2023/09/08 02:44:43;;;;;;;11.67;7.77;;;;;;;19.37;88.80;95645.41;5038434;28;20294;-80
2023/09/08 02:47:10;;;;;;;11.93;7.70;;;;;;;19.44;88.31;95643.41;5072512;28;20241;-81
2023/09/08 02:49:35;;;;;;;15.17;8.27;;;;;;;19.39;88.78;95648.66;5055188;28;20229;-80
2023/09/08 02:52:01;;;;;;;14.07;7.77;;;;;;;19.42;88.74;95643.66;5055217;28;20241;-79
2023/09/08 02:54:26;;;;;;;14.23;7.73;;;;;;;19.34;89.04;95645.84;5066468;28;20677;-80
2023/09/08 02:56:51;;;;;;;13.87;7.70;;;;;;;19.29;89.67;95646.56;5060013;28;20675;-80
2023/09/08 02:59:17;;;;;;;13.80;7.67;;;;;;;19.41;88.80;95636.75;5055334;28;20228;-81
2023/09/08 03:01:43;;;;;;;12.77;7.80;;;;;;;19.39;89.25;95643.34;5039231;28;20318;-80
2023/09/08 03:04:08;;;;;;;13.13;7.70;;;;;;;19.37;89.48;95640.09;5070062;28;20232;-81
2023/09/08 03:06:34;;;;;;;11.70;7.90;;;;;;;19.35;89.59;95632.34;5064829;28;20263;-81
2023/09/08 03:09:00;;;;;;;12.10;7.77;;;;;;;19.33;89.86;95634.44;5041156;28;20232;-80
2023/09/08 03:11:25;;;;;;;14.00;8.10;;;;;;;19.26;90.36;95638.25;5067786;28;20216;-80
2023/09/08 03:13:51;;;;;;;18.00;8.20;;;;;;;19.31;90.10;95633.84;5046322;28;20228;-81
2023/09/08 03:16:16;;;;;;;12.53;8.17;;;;;;;19.31;89.90;95627.75;5053563;28;20237;-80
2023/09/08 03:18:42;;;;;;;13.83;7.67;;;;;;;19.25;90.42;95626.03;5061725;28;20249;-80
2023/09/08 03:21:10;;;;;;;14.00;8.40;;;;;;;19.33;90.12;95633.63;5060959;28;20810;-81
2023/09/08 03:23:39;;;;;;;12.57;8.47;;;;;;;19.20;90.86;95633.91;5061251;28;20262;-81
2023/09/08 03:26:05;;;;;;;13.87;8.47;;;;;;;19.20;90.81;95631.25;5058225;28;20229;-81
2023/09/08 03:28:31;;;;;;;16.37;8.30;;;;;;;19.07;91.61;95640.28;5061145;28;20235;-82
2023/09/08 03:30:57;;;;;;;13.13;8.00;;;;;;;19.10;91.41;95631.84;5053397;28;20923;-81
2023/09/08 03:33:22;;;;;;;14.27;8.50;;;;;;;19.10;91.44;95639.81;5052947;28;20226;-80
2023/09/08 03:35:47;;;;;;;12.97;8.60;;;;;;;19.06;91.53;95632.56;5053743;28;20229;-81
2023/09/08 03:38:13;;;;;;;13.63;8.47;;;;;;;19.18;91.40;95634.13;5065478;28;20236;-81
2023/09/08 03:40:38;;;;;;;15.43;8.17;;;;;;;19.12;91.47;95631.59;5039226;28;20230;-80
2023/09/08 03:43:04;;;;;;;16.80;8.57;;;;;;;19.09;91.92;95627.56;5041551;28;20956;-81
2023/09/08 03:45:30;;;;;;;14.20;8.50;;;;;;;19.07;91.67;95631.50;5044622;28;20293;-80
2023/09/08 03:47:55;;;;;;;13.33;8.60;;;;;;;19.07;91.84;95632.31;5065876;28;20705;-81
2023/09/08 03:50:20;;;;;;;17.70;8.53;;;;;;;19.03;92.22;95640.97;5040857;28;20233;-80
2023/09/08 03:52:46;;;;;;;16.87;8.50;;;;;;;19.03;92.11;95638.31;5043039;28;20229;-81
2023/09/08 03:55:11;;;;;;;13.43;8.47;;;;;;;18.92;92.62;95631.16;5048608;28;20915;-81
2023/09/08 03:57:37;;;;;;;14.53;8.30;;;;;;;18.92;92.99;95634.63;5062456;28;20227;-81
2023/09/08 04:00:05;;;;;;;14.60;8.70;;;;;;;18.76;93.73;95630.06;5036589;28;20236;-83
2023/09/08 04:02:30;;;;;;;13.37;8.40;;;;;;;18.87;93.55;95623.91;5042272;28;20738;-79
2023/09/08 04:04:56;;;;;;;13.93;8.50;;;;;;;18.86;93.49;95632.13;5039525;28;20233;-82
2023/09/08 04:07:21;;;;;;;15.80;8.67;;;;;;;18.78;93.88;95634.09;5063831;28;20237;-82
2023/09/08 04:09:46;;;;;;;15.57;8.87;;;;;;;18.62;95.04;95634.81;5048239;28;20943;-83
2023/09/08 04:12:12;;;;;;;16.03;8.73;;;;;;;18.52;95.37;95636.41;5049483;28;20224;-84
2023/09/08 04:14:38;;;;;;;13.90;8.43;;;;;;;18.49;95.69;95627.06;5051627;28;20220;-83
2023/09/08 04:17:03;;;;;;;13.80;8.40;;;;;;;18.64;95.22;95632.72;5039233;28;20233;-83
2023/09/08 04:19:28;;;;;;;15.37;8.70;;;;;;;18.65;95.03;95631.66;5068681;28;20225;-82
2023/09/08 04:21:55;;;;;;;13.87;8.47;;;;;;;18.55;96.21;95631.47;5039306;28;20632;-82
2023/09/08 04:24:20;;;;;;;13.67;8.87;;;;;;;18.51;96.58;95632.16;5058981;28;20228;-81
2023/09/08 04:26:46;;;;;;;12.83;8.47;;;;;;;18.38;97.11;95635.00;5074078;28;20321;-81
2023/09/08 04:29:11;;;;;;;12.23;8.20;;;;;;;18.30;97.79;95638.78;5068365;28;20240;-81
2023/09/08 04:31:37;;;;;;;17.77;8.60;;;;;;;18.41;97.36;95638.00;5069853;28;20224;-81
2023/09/08 04:34:02;;;;;;;13.23;8.50;;;;;;;18.22;98.02;95644.44;5068960;28;20224;-82
2023/09/08 04:36:30;;;;;;;15.00;8.63;;;;;;;18.26;98.13;95650.91;5062673;28;20291;-82
2023/09/08 04:38:56;;;;;;;15.03;8.80;;;;;;;18.26;97.82;95645.59;5049415;28;20221;-83
2023/09/08 04:41:21;;;;;;;14.13;8.50;;;;;;;18.02;99.88;95646.59;5041422;28;20221;-82
2023/09/08 04:43:47;;;;;;;14.13;8.60;;;;;;;18.10;99.80;95652.34;5046508;28;20217;-82
2023/09/08 04:46:12;;;;;;;13.13;8.33;;;;;;;18.23;98.96;95648.69;5072226;28;20744;-82
2023/09/08 04:48:38;;;;;;;15.33;8.27;;;;;;;18.20;99.31;95643.84;5039961;28;20213;-82
2023/09/08 04:51:03;;;;;;;13.67;8.50;;;;;;;18.11;99.73;95643.38;5050864;28;20621;-82
2023/09/08 04:53:29;;;;;;;17.53;8.80;;;;;;;18.21;99.05;95650.78;5061023;28;20718;-82
2023/09/08 04:55:57;;;;;;;15.60;8.67;;;;;;;18.16;99.72;95646.16;5041373;28;20228;-83
2023/09/08 04:58:23;;;;;;;18.30;8.50;;;;;;;18.32;99.25;95644.66;5058943;28;20228;-83
2023/09/08 05:00:48;;;;;;;17.27;9.07;;;;;;;18.50;98.05;95651.75;5052075;28;20647;-82
2023/09/08 05:03:14;;;;;;;19.63;10.00;;;;;;;18.55;97.86;95650.03;5069636;28;20307;-82
2023/09/08 05:05:39;;;;;;;16.80;9.17;;;;;;;18.69;97.07;95653.25;5050698;28;20234;-82
2023/09/08 05:08:05;;;;;;;23.33;10.60;;;;;;;18.75;97.01;95653.13;5042826;28;20249;-83
2023/09/08 05:10:30;;;;;;;17.13;9.93;;;;;;;18.89;96.08;95650.22;5066836;28;20988;-79
2023/09/08 05:12:59;;;;;;;17.30;9.47;;;;;;;19.00;95.54;95655.50;5036866;28;20236;-81
2023/09/08 05:15:25;;;;;;;15.97;9.27;;;;;;;19.01;95.47;95651.81;5054835;28;20243;-82
2023/09/08 05:17:51;;;;;;;15.07;9.00;;;;;;;19.06;95.37;95653.78;5066384;28;20236;-81
2023/09/08 05:20:16;;;;;;;15.67;9.10;;;;;;;19.36;93.48;95657.88;5071493;28;20664;-80
2023/09/08 05:22:42;;;;;;;14.83;8.50;;;;;;;19.26;94.38;95652.34;5053312;28;20275;-80
2023/09/08 05:25:08;;;;;;;18.80;8.53;;;;;;;19.44;92.08;95657.50;5070574;28;20569;-81
2023/09/08 05:27:33;;;;;;;12.20;8.10;;;;;;;19.56;90.84;95649.47;5039079;28;20236;-81
2023/09/08 05:29:59;;;;;;;15.33;8.03;;;;;;;19.52;90.98;95652.84;5054708;28;20293;-82
2023/09/08 05:32:25;;;;;;;14.87;7.93;;;;;;;19.71;89.01;95652.44;5060629;28;20330;-81
2023/09/08 05:34:50;;;;;;;14.70;8.20;;;;;;;19.61;89.83;95654.88;5053350;28;20241;-82
2023/09/08 05:37:16;;;;;;;14.77;7.87;;;;;;;19.66;90.49;95652.34;5039234;28;20280;-81
2023/09/08 05:39:41;;;;;;;13.07;7.60;;;;;;;19.71;90.01;95656.94;5072345;28;20228;-81
2023/09/08 05:42:07;;;;;;;12.70;7.97;;;;;;;19.76;90.41;95659.69;5058707;28;20232;-82
2023/09/08 05:44:32;;;;;;;13.07;7.33;;;;;;;19.75;89.36;95660.75;5073420;27;20325;-81
2023/09/08 05:46:58;;;;;;;13.23;7.53;;;;;;;19.82;89.59;95662.19;5071066;28;20228;-81
2023/09/08 05:49:23;;;;;;;13.77;7.27;;;;;;;19.94;88.29;95670.91;5071584;28;20227;-81
2023/09/08 05:51:49;;;;;;;13.00;6.90;;;;;;;20.13;87.29;95666.19;5069467;28;20245;-81
2023/09/08 05:54:14;;;;;;;14.57;7.37;;;;;;;20.22;86.98;95669.25;5056334;28;20249;-81
2023/09/08 05:56:40;;;;;;;13.27;7.47;;;;;;;20.15;87.76;95669.44;5035641;28;20235;-82
2023/09/08 05:59:05;;;;;;;12.00;6.97;;;;;;;20.19;84.37;95675.88;5052869;28;20242;-81
2023/09/08 06:01:31;;;;;;;9.77;6.87;;;;;;;20.23;82.51;95676.22;5042545;28;20256;-79
2023/09/08 06:03:56;;;;;;;13.17;5.90;;;;;;;20.23;79.68;95673.56;5047765;28;20232;-80
2023/09/08 06:06:22;;;;;;;14.90;6.27;;;;;;;20.33;78.90;95673.72;5042469;28;20866;-80
2023/09/08 06:08:47;;;;;;;14.13;6.50;;;;;;;20.38;79.03;95674.63;5037722;28;20257;-81
2023/09/08 06:11:13;;;;;;;19.00;9.30;;;;;;;20.35;79.01;95674.31;5055897;28;20689;-80
2023/09/08 06:13:38;;;;;;;11.43;6.60;;;;;;;20.41;77.74;95668.81;5055681;28;20216;-81
2023/09/08 06:16:04;;;;;;;16.50;8.33;;;;;;;20.53;77.83;95674.88;5049476;28;20236;-81
2023/09/08 06:18:33;;;;;;;12.30;6.73;;;;;;;20.56;79.13;95670.91;5065096;28;20252;-80
2023/09/08 06:20:59;;;;;;;10.30;6.00;;;;;;;20.57;76.88;95665.34;5048820;28;20327;-81
2023/09/08 06:23:24;;;;;;;11.03;5.90;;;;;;;20.60;76.88;95672.84;5070348;28;20224;-81
2023/09/08 06:25:50;;;;;;;9.10;5.73;;;;;;;20.74;75.98;95667.97;5055860;28;20413;-79
2023/09/08 06:28:15;;;;;;;11.30;5.90;;;;;;;20.86;75.02;95676.69;5050512;28;20229;-81
2023/09/08 06:30:41;;;;;;;9.97;5.80;;;;;;;20.87;75.41;95680.97;5037643;28;20236;-80
2023/09/08 06:33:10;;;;;;;13.13;5.97;;;;;;;20.88;74.69;95679.88;5038817;28;20228;-79
2023/09/08 06:35:35;;;;;;;9.27;5.87;;;;;;;20.96;73.37;95690.13;5049678;28;20225;-80
2023/09/08 06:38:01;;;;;;;15.97;5.33;;;;;;;21.04;71.62;95688.91;5064892;28;20232;-80
2023/09/08 06:40:28;;;;;;;9.27;4.70;;;;;;;21.06;72.01;95687.66;5051647;28;20888;-80
2023/09/08 06:42:54;;;;;;;9.00;5.10;;;;;;;21.07;72.21;95691.09;5041978;28;20286;-80
2023/09/08 06:45:19;;;;;;;9.87;5.40;;;;;;;21.11;71.33;95690.34;5058208;28;20232;-79
2023/09/08 06:47:45;;;;;;;8.27;4.93;;;;;;;21.13;72.01;95687.47;5070948;28;20233;-81
2023/09/08 06:50:10;;;;;;;9.87;4.90;;;;;;;21.17;69.76;95689.38;5049340;28;20240;-80
2023/09/08 06:52:36;;;;;;;9.37;4.63;;;;;;;21.25;68.14;95688.16;5035166;28;20952;-80
2023/09/08 06:55:01;;;;;;;9.87;4.80;;;;;;;21.29;67.85;95695.41;5046689;28;20224;-82
2023/09/08 06:57:27;;;;;;;8.50;4.50;;;;;;;21.40;67.62;95688.31;5038776;28;20224;-80
2023/09/08 06:59:52;;;;;;;14.37;5.83;;;;;;;21.46;67.58;95695.34;5049586;28;20600;-81
2023/09/08 07:02:18;;;;;;;8.77;4.60;;;;;;;21.53;66.76;95703.13;5058269;28;20232;-80
2023/09/08 07:04:43;;;;;;;7.07;4.50;;;;;;;21.57;67.29;95696.25;5066398;28;20697;-79
2023/09/08 07:07:10;;;;;;;7.53;4.40;;;;;;;21.61;67.89;95695.53;5039424;28;20232;-80
2023/09/08 07:09:36;;;;;;;12.88;5.05;;;;;;;21.62;66.72;95691.00;5069139;28;20715;-80
2023/09/08 07:12:06;;;;;;;7.97;4.50;;;;;;;21.59;66.07;95697.63;5037695;28;20262;-80
2023/09/08 07:14:31;;;;;;;8.03;4.90;;;;;;;21.67;66.76;95691.03;5074086;28;20225;-77
2023/09/08 07:16:57;;;;;;;8.50;4.70;;;;;;;21.68;65.15;95701.47;5057698;28;20226;-80
2023/09/08 07:19:22;;;;;;;7.33;4.20;;;;;;;21.78;65.05;95693.56;5078428;28;20286;-81
2023/09/08 07:21:48;;;;;;;9.17;4.70;;;;;;;21.81;64.91;95695.75;5041311;28;20280;-80
2023/09/08 07:24:13;;;;;;;6.60;3.93;;;;;;;21.88;63.83;95695.56;5062743;28;20240;-80
2023/09/08 07:26:39;;;;;;;6.50;4.27;;;;;;;21.88;62.75;95693.72;5053859;28;20259;-79
2023/09/08 07:29:04;;;;;;;8.53;4.23;;;;;;;21.89;62.77;95695.34;5059678;28;20253;-79
2023/09/08 07:31:30;;;;;;;5.82;4.28;;;;;;;21.86;63.42;95689.69;5037264;28;20233;-81
2023/09/08 07:33:55;;;;;;;9.32;4.32;;;;;;;21.99;62.14;95682.13;5067939;28;20244;-80
2023/09/08 07:36:21;;;;;;;8.83;4.30;;;;;;;22.02;64.06;95692.25;5058045;28;20231;-79
2023/09/08 07:38:46;;;;;;;8.90;4.50;;;;;;;22.07;63.76;95694.16;5065600;28;20655;-79
2023/09/08 07:41:12;;;;;;;10.05;4.32;;;;;;;22.07;63.54;95689.66;5041208;28;20233;-80
2023/09/08 07:43:40;;;;;;;7.97;4.38;;;;;;;22.08;62.37;95688.59;5030225;28;20233;-78
2023/09/08 07:46:06;;;;;;;13.87;4.17;;;;;;;22.09;62.56;95687.53;5066866;28;20314;-80
2023/09/08 07:48:32;;;;;;;7.00;4.13;;;;;;;22.22;61.73;95689.00;5048544;28;20234;-79
2023/09/08 07:50:59;;;;;;;7.07;4.43;;;;;;;22.26;62.33;95690.06;5066330;28;20251;-80
2023/09/08 07:53:25;;;;;;;6.38;4.40;;;;;;;22.34;61.40;95684.28;5057940;28;20354;-79
2023/09/08 07:55:50;;;;;;;6.72;4.20;;;;;;;22.43;60.85;95693.44;5027640;28;20232;-82
2023/09/08 07:58:15;;;;;;;7.80;4.40;;;;;;;22.50;61.83;95686.03;5067352;28;20220;-79
2023/09/08 08:00:41;;;;;;;7.35;4.60;;;;;;;22.57;61.02;95681.28;5069516;28;20225;-80
2023/09/08 08:03:06;;;;;;;8.15;4.78;;;;;;;22.63;60.29;95680.31;5056241;28;20609;-79
2023/09/08 08:05:32;;;;;;;6.78;4.20;;;;;;;22.74;61.51;95683.81;5070614;28;20217;-80
2023/09/08 08:07:57;;;;;;;11.02;4.43;;;;;;;22.77;59.58;95678.78;5036117;28;20292;-79
2023/09/08 08:10:23;;;;;;;5.78;4.32;;;;;;;22.82;60.73;95682.53;5053690;28;20663;-79
2023/09/08 08:12:48;;;;;;;8.55;4.40;;;;;;;22.68;60.00;95674.19;5052755;28;20241;-79
2023/09/08 08:15:14;;;;;;;9.25;4.70;;;;;;;22.65;60.40;95674.69;5050748;28;20235;-80
2023/09/08 08:17:39;;;;;;;5.55;4.30;;;;;;;22.62;60.62;95678.69;5056428;28;20233;-79
2023/09/08 08:20:09;;;;;;;6.90;4.55;;;;;;;22.59;60.90;95681.81;5059489;28;20759;-82
2023/09/08 08:22:38;;;;;;;12.15;6.45;;;;;;;22.59;60.51;95679.16;5042415;28;20243;-81
2023/09/08 08:25:03;;;;;;;6.68;4.35;;;;;;;22.60;60.52;95679.97;5058306;28;20232;-79
2023/09/08 08:27:30;;;;;;;9.73;7.00;;;;;;;22.56;61.64;95670.88;5073163;28;20248;-80
2023/09/08 08:30:00;;;;;;;10.95;5.15;;;;;;;22.56;62.61;95674.34;5057018;28;20252;-81
2023/09/08 08:32:26;;;;;;;14.32;7.60;;;;;;;22.55;63.29;95670.06;5029379;28;20283;-80
2023/09/08 08:34:52;;;;;;;7.97;5.38;;;;;;;22.60;62.97;95670.09;5077314;28;20231;-80
2023/09/08 08:37:18;;;;;;;8.05;4.63;;;;;;;22.68;62.24;95663.50;5042163;28;20233;-78
2023/09/08 08:39:43;;;;;;;12.52;4.70;;;;;;;22.79;60.50;95671.31;5038675;28;20318;-80
2023/09/08 08:42:11;;;;;;;8.82;4.38;;;;;;;22.74;60.40;95660.63;5085008;28;20240;-80
2023/09/08 08:44:39;;;;;;;8.15;4.53;;;;;;;22.77;60.04;95662.78;5068824;28;20224;-80
2023/09/08 08:47:06;;;;;;;6.88;4.22;;;;;;;23.04;58.83;95656.53;5056998;28;20251;-80
2023/09/08 08:49:32;;;;;;;5.47;4.18;;;;;;;23.15;59.12;95658.97;5071951;28;20291;-80
2023/09/08 08:51:58;;;;;;;6.10;4.05;;;;;;;23.19;57.17;95653.94;5039073;28;20228;-80
2023/09/08 08:54:23;;;;;;;5.50;4.10;;;;;;;23.15;57.04;95653.63;5060371;28;21042;-79
2023/09/08 08:56:49;;;;;;;8.45;3.88;;;;;;;23.21;55.87;95649.13;5073174;28;20255;-81
2023/09/08 08:59:14;;;;;;;10.15;4.00;;;;;;;23.16;57.20;95654.44;5057899;28;20228;-80
2023/09/08 09:01:40;;;;;;;7.78;4.10;;;;;;;22.99;57.87;95653.81;5035581;28;20248;-80
2023/09/08 09:04:06;;;;;;;9.07;4.50;;;;;;;22.95;57.41;95652.75;5071207;28;20239;-80
2023/09/08 09:06:32;;;;;;;5.95;4.35;;;;;;;23.00;56.88;95660.78;5052524;28;20244;-80
2023/09/08 09:08:58;;;;;;;7.88;4.60;;;;;;;22.97;58.14;95663.97;5058764;28;20634;-81
2023/09/08 09:11:23;;;;;;;6.43;3.90;;;;;;;22.95;57.23;95658.09;5039932;28;20712;-81
2023/09/08 09:13:49;;;;;;;7.13;4.30;;;;;;;23.02;57.83;95651.44;5050618;28;20225;-81
2023/09/08 09:16:14;;;;;;;12.93;7.57;;;;;;;22.97;56.98;95663.97;5038382;28;20236;-81
2023/09/08 09:18:59;;;;;;;8.10;4.60;;;;;;;22.88;58.06;95662.84;5066486;28;20228;-81
2023/09/08 09:21:40;;;;;;;14.88;4.57;;;;;;;22.92;56.97;95662.06;5041490;28;20235;-80
2023/09/08 09:24:06;;;;;;;5.80;4.18;;;;;;;22.95;57.61;95658.09;5037667;28;20256;-80
2023/09/08 09:26:31;;;;;;;5.95;4.10;;;;;;;22.88;58.08;95652.94;5062620;28;20606;-81
2023/09/08 09:28:59;;;;;;;9.07;4.60;;;;;;;23.00;58.16;95660.78;5066424;28;20232;-81
2023/09/08 09:31:25;;;;;;;10.82;4.40;;;;;;;23.02;58.88;95661.31;5054568;28;20794;-81
2023/09/08 09:34:11;;;;;;;6.43;4.10;;;;;;;23.01;58.76;95657.84;5041882;28;21435;-81
2023/09/08 09:36:39;;;;;;;13.07;5.05;;;;;;;23.09;58.20;95664.56;5067686;28;20801;-80
2023/09/08 09:39:05;;;;;;;13.57;5.97;;;;;;;23.07;58.70;95658.69;5053700;28;20224;-81
2023/09/08 09:41:31;;;;;;;9.10;4.50;;;;;;;23.10;58.48;95655.47;5048057;28;20224;-79
2023/09/08 09:43:57;;;;;;;9.35;4.65;;;;;;;23.17;57.50;95659.53;5043590;28;20228;-80
2023/09/08 09:46:22;;;;;;;5.75;4.18;;;;;;;23.30;57.81;95653.72;5044503;28;20240;-82
2023/09/08 09:48:53;;;;;;;8.02;4.47;;;;;;;23.25;58.80;95650.22;5067523;28;20313;-82
2023/09/08 09:51:19;;;;;;;6.80;4.75;;;;;;;23.25;58.70;95648.34;5052240;28;20368;-79
2023/09/08 09:53:45;;;;;;;7.70;4.28;;;;;;;23.18;59.63;95641.63;5061370;28;20225;-80
2023/09/08 09:56:10;;;;;;;10.05;4.35;;;;;;;23.19;59.64;95638.69;5041530;28;20267;-80
2023/09/08 09:58:37;;;;;;;6.63;4.38;;;;;;;23.22;58.88;95638.19;5041071;28;20587;-81
2023/09/08 10:01:03;;;;;;;6.43;4.40;;;;;;;23.31;58.82;95644.63;5052174;28;20251;-80
2023/09/08 10:03:30;;;;;;;7.43;4.40;;;;;;;23.38;60.02;95644.44;5069852;28;20233;-81
2023/09/08 10:05:58;;;;;;;6.90;4.45;;;;;;;23.44;60.21;95638.84;5038373;28;20296;-81
2023/09/08 10:08:24;;;;;;;7.95;4.63;;;;;;;23.38;58.78;95634.53;5062476;28;20225;-81
2023/09/08 10:10:50;;;;;;;7.47;4.88;;;;;;;23.35;58.38;95634.25;5053331;28;20369;-81
2023/09/08 10:13:21;;;;;;;8.48;4.57;;;;;;;23.26;59.61;95630.47;5049924;28;20661;-80
2023/09/08 10:15:46;;;;;;;6.75;4.40;;;;;;;23.21;59.19;95631.25;5054207;28;20764;-81
2023/09/08 10:18:14;;;;;;;9.82;4.50;;;;;;;23.25;60.03;95635.00;5050176;28;20255;-80
2023/09/08 10:20:39;;;;;;;7.80;5.47;;;;;;;23.33;58.87;95626.47;5071014;28;20243;-80
2023/09/08 10:23:31;;;;;;;10.93;5.60;;;;;;;23.44;59.51;95635.38;5054742;28;20224;-82
2023/09/08 10:25:59;;;;;;;8.95;4.82;;;;;;;23.45;59.90;95621.72;5041921;28;20229;-81
2023/09/08 10:28:25;;;;;;;14.27;6.13;;;;;;;23.42;59.61;95624.94;5047969;28;20315;-81
2023/09/08 10:30:51;;;;;;;9.88;4.75;;;;;;;23.39;60.19;95620.13;5068167;28;20244;-80
2023/09/08 10:33:17;;;;;;;9.70;4.70;;;;;;;23.29;60.85;95622.72;5072991;28;20228;-81
2023/09/08 10:35:42;;;;;;;7.68;4.40;;;;;;;23.26;60.21;95623.22;5041531;28;20281;-80
2023/09/08 10:38:26;;;;;;;9.23;4.32;;;;;;;23.27;59.99;95621.38;5072231;28;20599;-80
2023/09/08 10:40:52;;;;;;;7.45;4.15;;;;;;;23.26;59.20;95617.88;5053016;28;20263;-80
2023/09/08 10:43:18;;;;;;;6.20;4.22;;;;;;;23.45;58.78;95615.59;5049330;28;20298;-75
2023/09/08 10:45:44;;;;;;;8.68;4.47;;;;;;;23.44;59.29;95616.66;5038531;28;20754;-76
2023/09/08 10:48:10;;;;;;;7.82;4.35;;;;;;;23.40;59.04;95611.00;5062282;28;20705;-75
2023/09/08 10:50:40;;;;;;;7.75;4.18;;;;;;;23.53;58.73;95617.75;5048385;28;20650;-75
2023/09/08 10:53:14;;;;;;;9.48;4.20;;;;;;;23.64;58.90;95611.38;5044637;28;20224;-75
2023/09/08 10:55:50;;;;;;;5.78;4.05;;;;;;;23.92;58.05;95608.22;5025166;28;20228;-75
2023/09/08 10:58:20;;;;;;;9.27;4.30;;;;;;;23.98;58.65;95617.03;5067415;28;20678;-76
2023/09/08 11:00:48;;;;;;;6.63;4.40;;;;;;;23.85;58.36;95609.53;5046561;28;20277;-75
2023/09/08 11:03:13;;;;;;;9.77;4.47;;;;;;;23.83;56.78;95617.03;5055753;28;20221;-75
2023/09/08 11:05:39;;;;;;;8.27;4.30;;;;;;;23.79;57.79;95619.41;5068097;28;20251;-76
2023/09/08 11:08:05;;;;;;;7.97;5.10;;;;;;;23.77;57.67;95620.75;5044266;28;20229;-75
2023/09/08 11:10:31;;;;;;;6.57;4.88;;;;;;;23.72;59.22;95610.84;5066796;28;20225;-75
2023/09/08 11:12:56;;;;;;;10.60;4.63;;;;;;;24.28;56.70;95610.94;5068065;28;21014;-76
2023/09/08 11:15:22;;;;;;;7.32;4.40;;;;;;;24.28;57.12;95602.91;5060471;28;20231;-75
2023/09/08 11:17:50;;;;;;;12.88;4.50;;;;;;;24.17;56.38;95612.00;5058570;28;20303;-76
2023/09/08 11:20:17;;;;;;;10.25;4.43;;;;;;;24.07;58.40;95597.53;5053097;28;20914;-75
2023/09/08 11:22:43;;;;;;;8.75;4.53;;;;;;;24.47;57.40;95601.28;5065411;28;20306;-73